createdAt,value
2019-05-28T00:00:00.980Z,2.4
2019-05-28T00:00:49.829Z,2.2
2019-05-28T00:01:48.938Z,2.7
2019-05-28T00:02:49.048Z,2.5
2019-05-28T00:03:48.994Z,2.7
2019-05-28T00:04:49.100Z,2.8
2019-05-28T00:05:49.229Z,2.3
2019-05-28T00:06:49.232Z,2.8
2019-05-28T00:07:49.382Z,2.5
2019-05-28T00:08:49.502Z,2.5
2019-05-28T00:09:49.607Z,2.5
2019-05-28T00:10:49.727Z,2.5
2019-05-28T00:11:49.843Z,2.8
2019-05-28T00:12:49.992Z,2.6
2019-05-28T00:13:50.110Z,2.7
2019-05-28T00:14:50.237Z,2.7
2019-05-28T00:15:50.357Z,3.1
2019-05-28T00:16:50.463Z,2.7
2019-05-28T00:17:50.614Z,3.2
2019-05-28T00:18:50.728Z,2.6
2019-05-28T00:19:50.847Z,2.8
2019-05-28T00:20:50.986Z,2.9
2019-05-28T00:21:51.096Z,2.7
2019-05-28T00:22:51.232Z,3
2019-05-28T00:23:51.388Z,2.6
2019-05-28T00:24:51.493Z,3.1
2019-05-28T00:25:51.623Z,2.9
2019-05-28T00:26:51.732Z,2.9
2019-05-28T00:27:51.981Z,3
2019-05-28T00:28:51.970Z,2.9
2019-05-28T00:29:52.095Z,2.6
2019-05-28T00:30:52.200Z,3.1
2019-05-28T00:31:52.314Z,2.6
2019-05-28T00:32:52.456Z,3
2019-05-28T00:33:52.565Z,2.7
2019-05-28T00:34:52.681Z,3.1
2019-05-28T00:35:52.794Z,3.2
2019-05-28T00:36:52.900Z,2.9
2019-05-28T00:37:53.061Z,2.6
2019-05-28T00:38:53.043Z,2.9
2019-05-28T00:39:53.001Z,2.9
2019-05-28T00:40:53.110Z,2.9
2019-05-28T00:41:53.227Z,2.6
2019-05-28T00:42:53.361Z,2.7
2019-05-28T00:43:53.507Z,2.9
2019-05-28T00:44:53.484Z,2.6
2019-05-28T00:45:53.600Z,3.2
2019-05-28T00:46:53.709Z,2.8
2019-05-28T00:47:53.843Z,3.1
2019-05-28T00:48:53.981Z,2.9
2019-05-28T00:49:54.069Z,3
2019-05-28T00:50:54.183Z,2.6
2019-05-28T00:51:54.283Z,3.1
2019-05-28T00:52:54.409Z,2.7
2019-05-28T00:53:54.563Z,2.8
2019-05-28T00:54:54.562Z,3.2
2019-05-28T00:55:54.678Z,3.3
2019-05-28T00:56:54.826Z,3.2
2019-05-28T00:57:54.939Z,2.9
2019-05-28T00:58:55.135Z,3
2019-05-28T00:59:55.164Z,3.2
2019-05-28T01:00:55.115Z,2.8
2019-05-28T01:01:55.266Z,3.2
2019-05-28T01:02:55.445Z,3.2
2019-05-28T01:03:55.451Z,3.5
2019-05-28T01:04:55.465Z,3.2
2019-05-28T01:05:55.472Z,3.2
2019-05-28T01:06:55.473Z,2.8
2019-05-28T01:07:55.412Z,3
2019-05-28T01:08:55.551Z,3.3
2019-05-28T01:09:55.692Z,3.6
2019-05-28T01:10:55.687Z,2.9
2019-05-28T01:11:55.853Z,3.5
2019-05-28T01:12:55.966Z,3.6
2019-05-28T01:13:56.073Z,3
2019-05-28T01:14:56.230Z,3.1
2019-05-28T01:15:56.335Z,3.3
2019-05-28T01:16:56.486Z,3.2
2019-05-28T01:17:56.562Z,3.2
2019-05-28T01:18:56.672Z,3.5
2019-05-28T01:19:56.856Z,3.1
2019-05-28T01:20:56.963Z,3.4
2019-05-28T01:21:57.085Z,3.7
2019-05-28T01:22:57.206Z,3.4
2019-05-28T01:23:57.323Z,3.4
2019-05-28T01:24:57.461Z,3.2
2019-05-28T01:25:57.572Z,3.1
2019-05-28T01:26:57.681Z,3.2
2019-05-28T01:27:57.802Z,3.7
2019-05-28T01:28:57.940Z,4.1
2019-05-28T01:29:58.024Z,3.5
2019-05-28T01:31:00.712Z,3
2019-05-28T01:31:59.065Z,3.1
2019-05-28T01:32:58.191Z,3.3
2019-05-28T01:33:58.302Z,3.2
2019-05-28T01:34:58.461Z,3.3
2019-05-28T01:35:58.429Z,3.5
2019-05-28T01:36:58.546Z,3.4
2019-05-28T01:37:58.674Z,3.2
2019-05-28T01:38:58.790Z,3.1
2019-05-28T01:39:58.901Z,2.8
2019-05-28T01:40:59.035Z,3.2
2019-05-28T01:41:59.144Z,3.2
2019-05-28T01:42:59.264Z,3.2
2019-05-28T01:43:59.370Z,3.2
2019-05-28T01:44:59.488Z,3
2019-05-28T01:45:59.637Z,3.2
2019-05-28T01:46:59.603Z,3.4
2019-05-28T01:47:59.654Z,3.4
2019-05-28T01:48:59.819Z,3.6
2019-05-28T01:49:59.929Z,3.4
2019-05-28T01:51:00.124Z,3.9
2019-05-28T01:52:00.075Z,3.6
2019-05-28T01:53:00.094Z,3.4
2019-05-28T01:54:00.209Z,3.5
2019-05-28T01:55:00.319Z,3.2
2019-05-28T01:56:00.504Z,3.5
2019-05-28T01:57:00.491Z,3.6
2019-05-28T01:58:00.584Z,3.4
2019-05-28T01:59:00.732Z,3.3
2019-05-28T02:00:00.831Z,3.4
2019-05-28T02:01:11.924Z,3.3
2019-05-28T02:02:02.055Z,3.5
2019-05-28T02:03:01.182Z,3.6
2019-05-28T02:04:01.289Z,3.2
2019-05-28T02:05:01.419Z,3.6
2019-05-28T02:06:01.595Z,3.6
2019-05-28T02:07:01.726Z,3.6
2019-05-28T02:08:01.702Z,3.9
2019-05-28T02:09:01.793Z,3.8
2019-05-28T02:10:01.916Z,3.5
2019-05-28T02:11:02.068Z,3.7
2019-05-28T02:12:02.048Z,3.6
2019-05-28T02:13:02.047Z,3.8
2019-05-28T02:14:02.054Z,3.8
2019-05-28T02:15:02.185Z,3.5
2019-05-28T02:16:02.348Z,3.4
2019-05-28T02:17:02.324Z,3.5
2019-05-28T02:18:02.451Z,4
2019-05-28T02:19:02.573Z,3.9
2019-05-28T02:20:02.698Z,3.7
2019-05-28T02:21:02.836Z,4
2019-05-28T02:22:02.963Z,3.6
2019-05-28T02:23:03.083Z,3.6
2019-05-28T02:24:03.188Z,3.7
2019-05-28T02:25:03.315Z,4.1
2019-05-28T02:26:03.313Z,3.8
2019-05-28T02:27:03.494Z,4
2019-05-28T02:28:03.449Z,4.2
2019-05-28T02:29:03.574Z,3.8
2019-05-28T02:30:03.778Z,4
2019-05-28T02:31:03.711Z,4.1
2019-05-28T02:32:03.860Z,4.1
2019-05-28T02:33:03.842Z,3.9
2019-05-28T02:34:03.965Z,3.9
2019-05-28T02:35:04.124Z,4.1
2019-05-28T02:36:04.170Z,3.9
2019-05-28T02:37:04.194Z,3.8
2019-05-28T02:38:04.324Z,3.8
2019-05-28T02:39:04.466Z,3.4
2019-05-28T02:40:04.577Z,3.9
2019-05-28T02:41:04.724Z,3.6
2019-05-28T02:42:04.785Z,3.8
2019-05-28T02:43:04.915Z,3.4
2019-05-28T02:44:05.048Z,4
2019-05-28T02:45:05.179Z,4
2019-05-28T02:46:05.279Z,4
2019-05-28T02:47:05.423Z,3.7
2019-05-28T02:48:05.504Z,4.1
2019-05-28T02:49:05.587Z,4.1
2019-05-28T02:50:05.686Z,4.2
2019-05-28T02:51:05.800Z,4.3
2019-05-28T02:52:05.914Z,4
2019-05-28T02:53:06.060Z,4.1
2019-05-28T02:54:06.169Z,4.1
2019-05-28T02:55:06.188Z,4.2
2019-05-28T02:56:06.299Z,4.4
2019-05-28T02:57:06.353Z,4.2
2019-05-28T02:58:06.491Z,4.2
2019-05-28T02:59:06.614Z,4.2
2019-05-28T03:00:06.630Z,4.3
2019-05-28T03:01:06.811Z,4.1
2019-05-28T03:02:06.942Z,4.1
2019-05-28T03:03:07.151Z,4.2
2019-05-28T03:04:07.095Z,3.8
2019-05-28T03:05:07.201Z,3.7
2019-05-28T03:06:07.321Z,4.1
2019-05-28T03:07:07.351Z,3.7
2019-05-28T03:08:07.548Z,4.1
2019-05-28T03:09:07.533Z,4.2
2019-05-28T03:10:07.643Z,4.3
2019-05-28T03:11:07.742Z,4
2019-05-28T03:12:07.846Z,3.8
2019-05-28T03:13:08.011Z,4.2
2019-05-28T03:14:08.083Z,4.4
2019-05-28T03:15:08.152Z,4.1
2019-05-28T03:16:08.219Z,4.4
2019-05-28T03:17:08.284Z,4.2
2019-05-28T03:18:08.352Z,4.4
2019-05-28T03:19:08.413Z,4
2019-05-28T03:20:08.498Z,4.2
2019-05-28T03:21:08.555Z,4.5
2019-05-28T03:22:08.645Z,4
2019-05-28T03:23:08.743Z,4
2019-05-28T03:24:08.846Z,4.3
2019-05-28T03:25:08.925Z,3.9
2019-05-28T03:26:09.029Z,4.1
2019-05-28T03:27:10.346Z,4.3
2019-05-28T03:28:09.141Z,4
2019-05-28T03:29:09.220Z,4
2019-05-28T03:30:09.289Z,4.4
2019-05-28T03:31:09.343Z,4
2019-05-28T03:32:09.890Z,4
2019-05-28T03:33:09.423Z,4.2
2019-05-28T03:34:09.499Z,4.1
2019-05-28T03:35:09.555Z,4.7
2019-05-28T03:36:09.611Z,4.1
2019-05-28T03:37:09.681Z,4.3
2019-05-28T03:38:09.727Z,4.5
2019-05-28T03:39:09.835Z,3.9
2019-05-28T03:40:09.905Z,4.3
2019-05-28T03:41:10.033Z,4.3
2019-05-28T03:42:10.081Z,4.5
2019-05-28T03:43:10.154Z,4.7
2019-05-28T03:44:10.257Z,4.2
2019-05-28T03:45:10.343Z,4.4
2019-05-28T03:46:10.397Z,4.5
2019-05-28T03:47:10.460Z,4.6
2019-05-28T03:48:10.524Z,4.5
2019-05-28T03:49:10.611Z,4.7
2019-05-28T03:50:10.672Z,4.5
2019-05-28T03:51:10.730Z,4.8
2019-05-28T03:52:10.786Z,4.5
2019-05-28T03:53:10.840Z,4.5
2019-05-28T03:54:10.986Z,4.3
2019-05-28T03:55:11.076Z,4.4
2019-05-28T03:56:11.200Z,4.8
2019-05-28T03:57:11.237Z,4.5
2019-05-28T03:58:11.305Z,4.2
2019-05-28T03:59:11.363Z,4.1
2019-05-28T04:00:11.444Z,4.2
2019-05-28T04:01:11.510Z,4.6
2019-05-28T04:02:22.936Z,4.5
2019-05-28T04:03:11.644Z,4.5
2019-05-28T04:04:11.746Z,4.7
2019-05-28T04:05:11.863Z,4.6
2019-05-28T04:06:11.917Z,4.4
2019-05-28T04:07:11.988Z,4.8
2019-05-28T04:08:12.261Z,5
2019-05-28T04:09:12.130Z,4.4
2019-05-28T04:10:12.220Z,5
2019-05-28T04:11:12.296Z,4.6
2019-05-28T04:12:12.376Z,4.6
2019-05-28T04:13:12.437Z,4.5
2019-05-28T04:14:12.517Z,4.7
2019-05-28T04:15:12.589Z,5.1
2019-05-28T04:16:12.682Z,5.6
2019-05-28T04:17:12.742Z,5.1
2019-05-28T04:18:12.828Z,4.8
2019-05-28T04:19:12.906Z,5.2
2019-05-28T04:20:13.010Z,5.4
2019-05-28T04:21:13.103Z,5.2
2019-05-28T04:22:13.157Z,5.4
2019-05-28T04:23:13.218Z,5.6
2019-05-28T04:24:13.295Z,5.5
2019-05-28T04:25:13.381Z,5.4
2019-05-28T04:26:13.440Z,5.2
2019-05-28T04:27:13.502Z,5.9
2019-05-28T04:28:13.563Z,5.7
2019-05-28T04:29:13.628Z,5.5
2019-05-28T04:30:13.726Z,5.9
2019-05-28T04:31:13.820Z,5.7
2019-05-28T04:32:13.938Z,5.6
2019-05-28T04:33:14.053Z,5.5
2019-05-28T04:34:14.050Z,5.9
2019-05-28T04:35:14.200Z,6.1
2019-05-28T04:36:14.288Z,6.9
2019-05-28T04:37:14.375Z,6.6
2019-05-28T04:38:14.446Z,6.8
2019-05-28T04:39:14.510Z,6.3
2019-05-28T04:40:14.613Z,7
2019-05-28T04:41:14.682Z,7.4
2019-05-28T04:42:14.750Z,7
2019-05-28T04:43:14.813Z,6.6
2019-05-28T04:44:14.876Z,7.6
2019-05-28T04:45:14.958Z,6.8
2019-05-28T04:46:15.065Z,7.2
2019-05-28T04:47:15.108Z,6.7
2019-05-28T04:48:15.177Z,6.8
2019-05-28T04:49:15.231Z,7.3
2019-05-28T04:50:15.339Z,6.9
2019-05-28T04:51:15.405Z,6.9
2019-05-28T04:52:15.616Z,6.5
2019-05-28T04:53:15.511Z,7.5
2019-05-28T04:54:15.569Z,7
2019-05-28T04:55:15.672Z,6.8
2019-05-28T04:56:15.776Z,7.3
2019-05-28T04:57:15.847Z,7.1
2019-05-28T04:58:15.950Z,7.4
2019-05-28T04:59:16.043Z,7.3
2019-05-28T05:16:17.209Z,8.7
2019-05-28T05:17:17.336Z,8.1
2019-05-28T05:18:17.396Z,8.3
2019-05-28T05:19:17.347Z,8.4
2019-05-28T05:20:17.343Z,8.1
2019-05-28T05:21:17.361Z,8.7
2019-05-28T05:22:17.388Z,7.7
2019-05-28T05:23:17.381Z,8.4
2019-05-28T05:24:17.397Z,8.6
2019-05-28T05:25:17.415Z,8.8
2019-05-28T05:26:17.472Z,9.4
2019-05-28T05:27:17.506Z,8.4
2019-05-28T05:28:17.545Z,9.1
2019-05-28T05:29:17.553Z,9.6
2019-05-28T05:30:17.646Z,9.1
2019-05-28T05:31:17.657Z,9.6
2019-05-28T05:32:17.786Z,8.9
2019-05-28T05:33:20.111Z,9.2
2019-05-28T05:34:17.949Z,9.4
2019-05-28T05:35:17.950Z,9.1
2019-05-28T05:36:17.988Z,9.3
2019-05-28T05:37:17.999Z,9.6
2019-05-28T05:38:18.000Z,9.5
2019-05-28T05:39:18.018Z,9.3
2019-05-28T05:40:18.035Z,9.9
2019-05-28T05:41:18.052Z,10.1
2019-05-28T05:42:18.149Z,9.5
2019-05-28T05:43:18.156Z,9.4
2019-05-28T05:44:19.158Z,9.5
2019-05-28T05:45:18.146Z,9.5
2019-05-28T05:46:18.166Z,9.6
2019-05-28T05:47:18.207Z,9.8
2019-05-28T05:48:18.255Z,9.5
2019-05-28T05:49:18.343Z,9.7
2019-05-28T05:50:18.419Z,9.1
2019-05-28T05:51:18.413Z,9.1
2019-05-28T05:52:18.471Z,9.9
2019-05-28T05:53:18.490Z,9
2019-05-28T05:54:18.481Z,9.9
2019-05-28T05:55:18.675Z,9.7
2019-05-28T05:56:18.684Z,9.5
2019-05-28T05:57:18.737Z,8.7
2019-05-28T05:58:18.755Z,8.7
2019-05-28T05:59:18.817Z,9
2019-05-28T06:00:18.816Z,8.1
2019-05-28T06:01:18.836Z,8.1
2019-05-28T06:02:19.066Z,7.8
2019-05-28T06:03:36.658Z,7.6
2019-05-28T06:04:18.876Z,8.4
2019-05-28T06:05:18.911Z,8.3
2019-05-28T06:06:18.934Z,9.1
2019-05-28T06:07:18.967Z,8.8
2019-05-28T06:08:19.015Z,9.2
2019-05-28T06:09:19.049Z,8.9
2019-05-28T06:10:19.030Z,8.6
2019-05-28T06:11:19.026Z,9
2019-05-28T06:12:19.018Z,8.2
2019-05-28T06:13:19.056Z,8.4
2019-05-28T06:14:19.048Z,8.4
2019-05-28T06:15:19.056Z,8.5
2019-05-28T06:16:19.117Z,8.7
2019-05-28T06:17:19.135Z,8.7
2019-05-28T06:18:19.164Z,8.7
2019-05-28T06:19:19.206Z,8.1
2019-05-28T06:20:19.194Z,8.8
2019-05-28T06:21:19.364Z,8.8
2019-05-28T06:22:19.391Z,8.9
2019-05-28T06:23:19.499Z,8.1
2019-05-28T06:24:19.492Z,8.5
2019-05-28T06:25:19.496Z,8.5
2019-05-28T06:26:19.492Z,8.3
2019-05-28T06:27:19.635Z,8.2
2019-05-28T06:28:19.512Z,8.3
2019-05-28T06:29:19.533Z,8
2019-05-28T06:30:19.542Z,7.5
2019-05-28T06:31:19.548Z,7.1
2019-05-28T06:32:19.551Z,7.4
2019-05-28T06:33:19.591Z,6.8
2019-05-28T06:34:19.620Z,8
2019-05-28T06:35:19.624Z,6.5
2019-05-28T06:36:19.641Z,6
2019-05-28T06:37:19.664Z,5.8
2019-05-28T06:38:19.758Z,5.9
2019-05-28T06:39:19.769Z,6.6
2019-05-28T06:40:19.768Z,7
2019-05-28T06:41:19.795Z,6.3
2019-05-28T06:42:19.812Z,6.8
2019-05-28T06:43:19.848Z,7.1
2019-05-28T06:44:19.863Z,6.3
2019-05-28T06:45:19.874Z,6.3
2019-05-28T06:46:19.983Z,6.2
2019-05-28T06:47:20.002Z,6.2
2019-05-28T06:48:20.011Z,5.9
2019-05-28T06:49:20.044Z,5.8
2019-05-28T06:50:20.050Z,6.2
2019-05-28T06:51:20.078Z,6.1
2019-05-28T06:52:20.089Z,5.5
2019-05-28T06:53:20.088Z,6
2019-05-28T06:54:20.096Z,5.5
2019-05-28T06:55:20.089Z,5.8
2019-05-28T06:56:20.084Z,5.7
2019-05-28T06:57:23.012Z,5.2
2019-05-28T06:58:37.779Z,5.3
2019-05-28T06:59:21.328Z,5.4
2019-05-28T07:00:20.468Z,5.4
2019-05-28T07:01:20.448Z,5.6
2019-05-28T07:02:20.536Z,5.9
2019-05-28T07:03:20.629Z,5.1
2019-05-28T07:04:32.072Z,5.5
2019-05-28T07:05:21.703Z,5.4
2019-05-28T07:06:20.761Z,5
2019-05-28T07:07:20.805Z,4.8
2019-05-28T07:08:20.963Z,5.1
2019-05-28T07:09:21.177Z,5.5
2019-05-28T07:10:21.185Z,5.4
2019-05-28T07:11:21.309Z,5.4
2019-05-28T07:12:21.361Z,5.2
2019-05-28T07:13:21.350Z,5.7
2019-05-28T07:14:21.500Z,6.3
2019-05-28T07:15:21.461Z,5.8
2019-05-28T07:16:21.469Z,6.2
2019-05-28T07:17:21.588Z,6.1
2019-05-28T07:18:21.680Z,5.5
2019-05-28T07:19:24.840Z,5.6
2019-05-28T07:20:22.798Z,5.5
2019-05-28T07:21:21.920Z,6
2019-05-28T07:22:21.973Z,5.7
2019-05-28T07:23:22.045Z,5.7
2019-05-28T07:24:22.210Z,5.9
2019-05-28T07:25:22.226Z,5.7
2019-05-28T07:26:22.208Z,6.1
2019-05-28T07:27:22.333Z,6.1
2019-05-28T07:28:22.480Z,5.7
2019-05-28T07:29:22.513Z,5.1
2019-05-28T07:30:22.622Z,5.2
2019-05-28T07:31:22.682Z,4.9
2019-05-28T07:32:22.755Z,5.3
2019-05-28T07:33:22.902Z,5.3
2019-05-28T07:34:30.536Z,5.5
2019-05-28T07:35:23.110Z,6.2
2019-05-28T07:36:23.180Z,5.5
2019-05-28T07:37:23.194Z,5.8
2019-05-28T07:38:23.280Z,5.8
2019-05-28T07:39:23.361Z,5.8
2019-05-28T07:40:31.387Z,5.3
2019-05-28T07:41:23.570Z,4.8
2019-05-28T07:42:32.512Z,5
2019-05-28T07:43:23.815Z,5.3
2019-05-28T07:44:23.928Z,5.3
2019-05-28T07:45:24.079Z,4.7
2019-05-28T07:46:24.076Z,4.7
2019-05-28T07:47:24.077Z,5
2019-05-28T07:48:24.080Z,4.8
2019-05-28T07:49:24.079Z,4.8
2019-05-28T07:50:24.102Z,4.7
2019-05-28T07:51:24.095Z,5.1
2019-05-28T07:52:24.097Z,4.5
2019-05-28T07:53:38.606Z,4.4
2019-05-28T07:54:24.312Z,4.7
2019-05-28T07:55:24.365Z,5
2019-05-28T07:56:24.386Z,4.7
2019-05-28T07:57:24.400Z,4.7
2019-05-28T07:58:24.423Z,4.5
2019-05-28T07:59:24.433Z,4.5
2019-05-28T08:00:24.511Z,4.1
2019-05-28T08:01:24.497Z,4.4
2019-05-28T08:02:24.513Z,4.5
2019-05-28T08:03:24.531Z,4.6
2019-05-28T08:04:24.523Z,4.1
2019-05-28T08:05:24.534Z,4.7
2019-05-28T08:06:24.580Z,4.1
2019-05-28T08:07:24.576Z,4.4
2019-05-28T08:08:24.575Z,4.4
2019-05-28T08:09:24.585Z,4.1
2019-05-28T08:10:24.608Z,3.8
2019-05-28T08:11:24.628Z,4.3
2019-05-28T08:12:24.635Z,4.2
2019-05-28T08:13:39.413Z,4.8
2019-05-28T08:14:24.652Z,4.3
2019-05-28T08:15:25.665Z,4.6
2019-05-28T08:16:24.653Z,4.1
2019-05-28T08:17:24.675Z,4.4
2019-05-28T08:18:24.678Z,4.2
2019-05-28T08:19:24.691Z,4.3
2019-05-28T08:20:24.716Z,4
2019-05-28T08:21:24.739Z,4.3
2019-05-28T08:22:38.630Z,3.7
2019-05-28T08:23:24.758Z,3.9
2019-05-28T08:24:24.757Z,3.6
2019-05-28T08:25:45.251Z,3.8
2019-05-28T08:26:24.916Z,3.5
2019-05-28T08:27:24.925Z,3.6
2019-05-28T08:28:24.895Z,3.9
2019-05-28T08:29:25.071Z,3.8
2019-05-28T08:30:25.073Z,3.7
2019-05-28T08:31:25.101Z,3.4
2019-05-28T08:32:25.197Z,3.2
2019-05-28T08:33:25.211Z,3.5
2019-05-28T08:34:25.203Z,3.7
2019-05-28T08:35:25.248Z,3
2019-05-28T08:36:25.323Z,3.4
2019-05-28T08:37:25.329Z,3.2
2019-05-28T08:38:25.337Z,3
2019-05-28T08:39:25.359Z,3.1
2019-05-28T08:40:25.352Z,3.3
2019-05-28T08:41:25.388Z,3.1
2019-05-28T08:42:25.456Z,3.1
2019-05-28T08:43:25.465Z,3.1
2019-05-28T08:44:25.519Z,3.4
2019-05-28T08:45:25.541Z,3
2019-05-28T08:46:25.601Z,3.2
2019-05-28T08:47:25.656Z,3.7
2019-05-28T08:48:25.669Z,4.1
2019-05-28T08:49:25.675Z,4
2019-05-28T08:50:34.182Z,4.3
2019-05-28T08:51:25.731Z,4.3
2019-05-28T08:52:25.739Z,4.5
2019-05-28T08:53:25.776Z,3.7
2019-05-28T08:54:25.777Z,3.9
2019-05-28T08:55:25.792Z,4.2
2019-05-28T08:56:25.854Z,4.2
2019-05-28T08:57:25.890Z,4.1
2019-05-28T08:58:25.890Z,4.6
2019-05-28T08:59:25.886Z,4.6
2019-05-28T09:00:25.880Z,4.6
2019-05-28T09:01:25.953Z,4.7
2019-05-28T09:02:28.232Z,5.2
2019-05-28T09:03:26.046Z,5.3
2019-05-28T09:04:26.046Z,4.6
2019-05-28T09:05:26.846Z,4.8
2019-05-28T09:06:27.151Z,5.4
2019-05-28T09:07:26.393Z,5.3
2019-05-28T09:08:38.206Z,5.6
2019-05-28T09:09:27.537Z,5.5
2019-05-28T09:10:26.623Z,5.5
2019-05-28T09:11:26.745Z,5.9
2019-05-28T09:12:26.892Z,5.8
2019-05-28T09:13:26.859Z,5.8
2019-05-28T09:14:26.949Z,5.3
2019-05-28T09:15:28.091Z,6
2019-05-28T09:26:27.430Z,5
2019-05-28T09:27:27.444Z,5.2
2019-05-28T09:28:30.341Z,5.1
2019-05-28T09:29:28.443Z,4.6
2019-05-28T09:30:27.466Z,5
2019-05-28T09:31:27.476Z,4.7
2019-05-28T09:32:27.489Z,4.8
2019-05-28T09:33:27.556Z,4.6
2019-05-28T09:34:27.543Z,5.2
2019-05-28T09:35:43.240Z,5
2019-05-28T09:36:28.710Z,5.5
2019-05-28T09:37:27.707Z,4.7
2019-05-28T09:38:27.808Z,5.4
2019-05-28T09:39:27.791Z,5.5
2019-05-28T09:40:45.957Z,5.3
2019-05-28T09:41:28.794Z,5.2
2019-05-28T09:42:27.829Z,5.9
2019-05-28T09:43:27.886Z,5.7
2019-05-28T09:44:27.985Z,6.4
2019-05-28T09:45:27.906Z,5.6
2019-05-28T09:46:27.999Z,6.3
2019-05-28T09:47:28.002Z,6.6
2019-05-28T09:48:28.125Z,6.8
2019-05-28T09:49:28.158Z,6.8
2019-05-28T09:50:30.843Z,7
2019-05-28T09:51:29.300Z,7
2019-05-28T09:52:28.310Z,7.7
2019-05-28T09:53:28.306Z,7.4
2019-05-28T09:54:28.341Z,7.2
2019-05-28T09:55:28.384Z,7.2
2019-05-28T09:56:31.942Z,7.1
2019-05-28T09:57:29.426Z,7.7
2019-05-28T09:58:29.412Z,6.6
2019-05-28T09:59:40.916Z,7.4
2019-05-28T10:00:29.451Z,7.1
2019-05-28T10:01:28.455Z,6.7
2019-05-28T10:02:28.469Z,6.8
2019-05-28T10:03:28.469Z,6.8
2019-05-28T10:04:45.110Z,6.3
2019-05-28T10:05:29.661Z,6
2019-05-28T10:06:36.575Z,5.8
2019-05-28T10:07:29.669Z,5.6
2019-05-28T10:08:28.707Z,5.5
2019-05-28T10:09:28.787Z,5.6
2019-05-28T10:10:28.843Z,5.2
2019-05-28T10:11:28.883Z,5.7
2019-05-28T10:12:28.917Z,5.3
2019-05-28T10:13:38.710Z,5
2019-05-28T10:14:30.123Z,5.3
2019-05-28T10:15:29.191Z,5.1
2019-05-28T10:16:30.204Z,5.4
2019-05-28T10:17:29.228Z,5.2
2019-05-28T10:18:29.325Z,5.5
2019-05-28T10:19:29.373Z,5.3
2019-05-28T10:20:29.404Z,5.7
2019-05-28T10:21:29.410Z,5.7
2019-05-28T10:22:29.406Z,5.8
2019-05-28T10:23:29.412Z,5.6
2019-05-28T10:24:29.420Z,5.3
2019-05-28T10:25:29.477Z,5.9
2019-05-28T10:26:29.534Z,5.8
2019-05-28T10:27:29.536Z,5.7
2019-05-28T10:28:29.550Z,5.9
2019-05-28T10:29:29.574Z,5.1
2019-05-28T10:30:29.607Z,5
2019-05-28T10:31:29.624Z,5.5
2019-05-28T10:32:29.627Z,5.1
2019-05-28T10:33:29.635Z,5.6
2019-05-28T10:34:29.654Z,5.4
2019-05-28T10:35:30.681Z,5.4
2019-05-28T10:36:35.661Z,5.4
2019-05-28T10:37:30.857Z,5.8
2019-05-28T10:38:29.853Z,6
2019-05-28T10:39:29.882Z,6
2019-05-28T10:40:29.922Z,6
2019-05-28T10:41:29.959Z,5.9
2019-05-28T10:42:29.959Z,6.3
2019-05-28T10:43:29.963Z,6.1
2019-05-28T10:44:30.001Z,6.4
2019-05-28T10:45:30.067Z,6.3
2019-05-28T10:46:30.103Z,6.2
2019-05-28T10:47:30.147Z,6.8
2019-05-28T10:48:30.149Z,6.4
2019-05-28T10:49:30.171Z,7.4
2019-05-28T10:50:30.222Z,6.5
2019-05-28T10:51:30.276Z,7.2
2019-05-28T10:52:30.287Z,7
2019-05-28T10:53:30.290Z,7.3
2019-05-28T10:54:30.292Z,7.3
2019-05-28T10:55:30.290Z,6.9
2019-05-28T10:56:30.343Z,7.1
2019-05-28T10:57:30.364Z,7.1
2019-05-28T10:58:30.351Z,7.2
2019-05-28T10:59:30.357Z,7.2
2019-05-28T11:00:30.367Z,7.3
2019-05-28T11:01:30.428Z,7.2
2019-05-28T11:02:30.393Z,7.3
2019-05-28T11:03:30.417Z,7
2019-05-28T11:04:30.417Z,7
2019-05-28T11:05:30.431Z,8.3
2019-05-28T11:06:30.471Z,8.3
2019-05-28T11:07:30.486Z,8.4
2019-05-28T11:08:30.509Z,8.9
2019-05-28T11:09:30.514Z,8.5
2019-05-28T11:10:30.523Z,8.5
2019-05-28T11:11:30.556Z,8.7
2019-05-28T11:12:30.607Z,9.1
2019-05-28T11:13:30.605Z,9.5
2019-05-28T11:14:31.595Z,9.6
2019-05-28T11:15:30.574Z,9.8
2019-05-28T11:16:30.613Z,9.5
2019-05-28T11:17:30.629Z,9.3
2019-05-28T11:18:30.653Z,9.5
2019-05-28T11:19:30.675Z,9.5
2019-05-28T11:20:30.706Z,9.1
2019-05-28T11:21:30.768Z,10.3
2019-05-28T11:22:30.800Z,10.8
2019-05-28T11:23:30.811Z,9.8
2019-05-28T11:24:30.837Z,10.4
2019-05-28T11:25:30.856Z,9.3
2019-05-28T11:26:30.889Z,9.4
2019-05-28T11:27:30.919Z,9
2019-05-28T11:28:30.931Z,9.2
2019-05-28T11:29:30.930Z,9.6
2019-05-28T11:30:30.970Z,9.3
2019-05-28T11:31:30.980Z,9.2
2019-05-28T11:32:31.177Z,9.2
2019-05-28T11:33:31.201Z,9.5
2019-05-28T11:34:31.349Z,8.4
2019-05-28T11:35:31.365Z,9.6
2019-05-28T11:36:31.455Z,8.9
2019-05-28T11:37:31.488Z,9.8
2019-05-28T11:38:31.499Z,9.2
2019-05-28T11:39:31.508Z,9.3
2019-05-28T11:40:31.537Z,9.8
2019-05-28T11:41:41.206Z,8.9
2019-05-28T11:42:31.574Z,9.7
2019-05-28T11:43:31.589Z,9.3
2019-05-28T11:44:31.614Z,9.4
2019-05-28T11:45:31.624Z,9.3
2019-05-28T11:46:31.658Z,9.6
2019-05-28T11:47:31.709Z,8.8
2019-05-28T11:48:31.722Z,8.9
2019-05-28T11:49:31.748Z,9.5
2019-05-28T11:50:31.782Z,8.9
2019-05-28T11:51:31.807Z,8.7
2019-05-28T11:52:31.874Z,8.5
2019-05-28T11:53:31.995Z,8.2
2019-05-28T11:54:31.989Z,9
2019-05-28T11:55:32.138Z,8
2019-05-28T11:56:32.150Z,8.1
2019-05-28T11:57:32.218Z,8.2
2019-05-28T11:58:32.307Z,8.3
2019-05-28T11:59:32.292Z,8.6
2019-05-28T12:00:32.361Z,8.7
2019-05-28T12:01:34.771Z,8.6
2019-05-28T12:02:33.518Z,9.1
2019-05-28T12:03:32.585Z,8.1
2019-05-28T12:04:32.622Z,9.4
2019-05-28T12:05:32.630Z,8.7
2019-05-28T12:06:37.912Z,9.5
2019-05-28T12:07:33.700Z,9.2
2019-05-28T12:08:32.792Z,10.1
2019-05-28T12:09:32.796Z,9.1
2019-05-28T12:10:32.816Z,9.9
2019-05-28T12:11:32.822Z,10.3
2019-05-28T12:12:32.850Z,10.1
2019-05-28T12:13:32.928Z,9.5
2019-05-28T12:14:32.954Z,9.9
2019-05-28T12:15:32.963Z,10
2019-05-28T12:16:32.989Z,10
2019-05-28T12:17:42.141Z,10.3
2019-05-28T12:18:34.052Z,9
2019-05-28T12:19:33.084Z,10.5
2019-05-28T12:20:33.131Z,8.8
2019-05-28T12:21:33.155Z,9.6
2019-05-28T12:22:33.187Z,10.4
2019-05-28T12:23:33.236Z,10.7
2019-05-28T12:24:33.251Z,10.6
2019-05-28T12:25:33.284Z,10.3
2019-05-28T12:26:33.326Z,11.4
2019-05-28T12:27:33.342Z,10.8
2019-05-28T12:28:37.890Z,10.6
2019-05-28T12:29:33.509Z,10.1
2019-05-28T12:30:34.505Z,9.8
2019-05-28T12:31:33.521Z,10
2019-05-28T12:32:33.533Z,9.7
2019-05-28T12:33:33.593Z,10.3
2019-05-28T12:34:33.613Z,10.6
2019-05-28T12:35:33.610Z,10.7
2019-05-28T12:36:33.814Z,10.2
2019-05-28T12:37:46.787Z,10.1
2019-05-28T12:38:34.866Z,9.9
2019-05-28T12:39:33.999Z,9
2019-05-28T12:40:46.803Z,9.4
2019-05-28T12:41:35.154Z,9.9
2019-05-28T12:42:34.167Z,9.6
2019-05-28T12:43:34.172Z,9.6
2019-05-28T12:44:41.796Z,9.5
2019-05-28T12:45:35.777Z,9.5
2019-05-28T12:46:34.485Z,9
2019-05-28T12:47:34.351Z,9
2019-05-28T12:48:34.380Z,8.1
2019-05-28T12:49:34.462Z,7.5
2019-05-28T12:50:34.464Z,7.6
2019-05-28T12:51:34.488Z,7.4
2019-05-28T12:52:34.505Z,7.9
2019-05-28T12:53:48.995Z,8.1
2019-05-28T12:54:35.701Z,8.1
2019-05-28T12:55:34.700Z,7.5
2019-05-28T12:56:34.728Z,7.7
2019-05-28T12:57:34.785Z,7.7
2019-05-28T12:58:42.109Z,7.2
2019-05-28T12:59:35.024Z,7
2019-05-28T13:00:35.045Z,7.1
2019-05-28T13:01:35.059Z,6.8
2019-05-28T13:02:35.089Z,6.7
2019-05-28T13:03:35.136Z,7
2019-05-28T13:04:35.162Z,6.5
2019-05-28T13:05:35.188Z,5.9
2019-05-28T13:06:35.217Z,5.9
2019-05-28T13:07:35.227Z,6
2019-05-28T13:08:35.229Z,5.7
2019-05-28T13:09:35.465Z,5.1
2019-05-28T13:10:35.303Z,4.8
2019-05-28T13:11:35.332Z,4.6
2019-05-28T13:12:35.366Z,5.1
2019-05-28T13:13:35.375Z,5
2019-05-28T13:14:35.434Z,5.1
2019-05-28T13:15:35.478Z,4.9
2019-05-28T13:16:36.491Z,4.8
2019-05-28T13:17:35.519Z,4
2019-05-28T13:18:35.533Z,4.1
2019-05-28T13:19:35.552Z,4.1
2019-05-28T13:20:35.666Z,4.5
2019-05-28T13:21:36.670Z,4.2
2019-05-28T13:22:35.723Z,4.8
2019-05-28T13:23:35.739Z,4.6
2019-05-28T13:24:35.834Z,4.9
2019-05-28T13:25:35.811Z,4.2
2019-05-28T13:26:35.827Z,4.4
2019-05-28T13:27:35.875Z,4.4
2019-05-28T13:28:35.907Z,4.4
2019-05-28T13:29:35.929Z,5
2019-05-28T13:30:35.962Z,4.5
2019-05-28T13:31:36.078Z,4.5
2019-05-28T13:32:36.130Z,4.6
2019-05-28T13:33:36.173Z,4.4
2019-05-28T13:34:36.184Z,4.8
2019-05-28T13:35:36.241Z,4.9
2019-05-28T13:36:36.299Z,4.9
2019-05-28T13:37:36.315Z,4.9
2019-05-28T13:38:36.310Z,4.4
2019-05-28T13:39:37.501Z,4.6
2019-05-28T13:40:36.563Z,4.7
2019-05-28T13:41:36.540Z,4.7
2019-05-28T13:42:36.604Z,4.5
2019-05-28T13:43:36.589Z,4.9
2019-05-28T13:44:36.670Z,4.7
2019-05-28T13:45:36.711Z,4.5
2019-05-28T13:46:36.772Z,4.2
2019-05-28T13:47:36.810Z,5
2019-05-28T13:48:36.825Z,4.4
2019-05-28T13:49:36.835Z,4.8
2019-05-28T13:50:36.899Z,4.3
2019-05-28T13:51:36.929Z,4.5
2019-05-28T13:52:36.928Z,4.1
2019-05-28T13:53:36.956Z,4.6
2019-05-28T13:54:36.992Z,5.1
2019-05-28T13:55:37.029Z,6.2
2019-05-28T13:56:37.083Z,6.8
2019-05-28T13:57:39.309Z,7.6
2019-05-28T13:58:37.110Z,7.8
2019-05-28T13:59:37.154Z,8
2019-05-28T14:00:37.201Z,8.1
2019-05-28T14:01:37.275Z,8.6
2019-05-28T14:02:37.318Z,7.9
2019-05-28T14:03:37.338Z,7.9
2019-05-28T14:04:37.370Z,8.1
2019-05-28T14:05:37.391Z,8.1
2019-05-28T14:06:43.061Z,8.3
2019-05-28T14:07:38.436Z,8.7
2019-05-28T14:08:46.299Z,7.6
2019-05-28T14:09:38.575Z,8.6
2019-05-28T14:10:37.603Z,8.5
2019-05-28T14:11:37.676Z,8.2
2019-05-28T14:12:37.660Z,8.3
2019-05-28T14:13:38.680Z,8.7
2019-05-28T14:14:37.717Z,8.4
2019-05-28T14:15:37.718Z,12
2019-05-28T14:16:37.754Z,11.3